METAR Data

Data at: 1513 UTC 21 May 2019

METAR for:EGLF (Farnborough Arpt, --, UK)
Text:EGLF 211450Z AUTO 35008KT 310V020 9999 NCD 18/07 Q1018
Temperature: 18.0°C ( 64°F)
Dewpoint: 7.0°C ( 45°F) [RH = 49%]
Pressure (altimeter):30.06 inches Hg (1018.0 mb)
Winds:from the N (350 degrees) at 9 MPH (8 knots; 4.1 m/s)
Visibility:6 or more sm (10+ km)
Ceiling:at least 12,000 feet AGL
Clouds:sky clear below 12,000 feet AGL

TAF for:EGLF (Farnborough Arpt, --, UK) issued at 1402 UTC 21 May 2019
Text:TAF EGLF 211402Z 2115/2123 31008KT 9999 FEW045
Forecast period:1500 to 2300 UTC 21 May 2019
Forecast type:FROM: standard forecast or significant change
Winds:from the NW (310 degrees) at 9 MPH (8 knots; 4.1 m/s)
Visibility:6 or more sm (10+ km)
Ceiling:at least 12,000 feet AGL
Clouds: few clouds at 4500 feet AGL

METAR for:EGUB (Benson(RAF), --, UK)
Text:EGUB 211450Z 31007KT CAVOK 19/06 Q1018 BLU NOSIG
Temperature: 19.0°C ( 66°F)
Dewpoint: 6.0°C ( 43°F) [RH = 43%]
Pressure (altimeter):30.06 inches Hg (1018.0 mb)
Winds:from the NW (310 degrees) at 8 MPH (7 knots; 3.6 m/s)
Visibility:6 or more sm (10+ km)
Ceiling:ceiling and visibility are OK
Clouds:unknown

TAF for:EGUB (Benson(RAF), --, UK) issued at 1334 UTC 21 May 2019
Text:TAF EGUB 211334Z 2115/2209 32008KT 9999 FEW045
Forecast period:1500 UTC 21 May 2019 to 0900 UTC 22 May 2019
Forecast type:FROM: standard forecast or significant change
Winds:from the NW (320 degrees) at 9 MPH (8 knots; 4.1 m/s)
Visibility:6 or more sm (10+ km)
Ceiling:at least 12,000 feet AGL
Clouds: few clouds at 4500 feet AGL

METAR for:EGVO (Odiham(RAF), --, UK)
Text:EGVO 211450Z 30008KT CAVOK 18/05 Q1018 BLU NOSIG
Temperature: 18.0°C ( 64°F)
Dewpoint: 5.0°C ( 41°F) [RH = 42%]
Pressure (altimeter):30.06 inches Hg (1018.0 mb)
Winds:from the WNW (300 degrees) at 9 MPH (8 knots; 4.1 m/s)
Visibility:6 or more sm (10+ km)
Ceiling:ceiling and visibility are OK
Clouds:unknown

TAF for:EGVO (Odiham(RAF), --, UK) issued at 1319 UTC 21 May 2019
Text:TAF EGVO 211319Z 2115/2203 31008KT 9999 FEW045
Forecast period:1500 UTC 21 May 2019 to 0300 UTC 22 May 2019
Forecast type:FROM: standard forecast or significant change
Winds:from the NW (310 degrees) at 9 MPH (8 knots; 4.1 m/s)
Visibility:6 or more sm (10+ km)
Ceiling:at least 12,000 feet AGL
Clouds: few clouds at 4500 feet AGL

METAR for:EGTK (Oxford Arpt, --, UK)
Text:EGTK 211450Z 32008KT 270V360 9999 SCT048 18/07 Q1019
Temperature: 18.0°C ( 64°F)
Dewpoint: 7.0°C ( 45°F) [RH = 49%]
Pressure (altimeter):30.09 inches Hg (1019.0 mb)
Winds:from the NW (320 degrees) at 9 MPH (8 knots; 4.1 m/s)
Visibility:6 or more sm (10+ km)
Ceiling:at least 12,000 feet AGL
Clouds: scattered clouds at 4800 feet AGL

TAF for:EGTK (Oxford Arpt, --, UK) issued at 1359 UTC 21 May 2019
Text:TAF EGTK 211359Z 2115/2122 30008KT 9999 FEW045
Forecast period:1500 to 2200 UTC 21 May 2019
Forecast type:FROM: standard forecast or significant change
Winds:from the WNW (300 degrees) at 9 MPH (8 knots; 4.1 m/s)
Visibility:6 or more sm (10+ km)
Ceiling:at least 12,000 feet AGL
Clouds: few clouds at 4500 feet AGL

METAR for:EGHH (Bournemouth Intl, --, UK)
Text:EGHH 211450Z VRB03KT CAVOK 20/07 Q1019
Temperature: 20.0°C ( 68°F)
Dewpoint: 7.0°C ( 45°F) [RH = 43%]
Pressure (altimeter):30.09 inches Hg (1019.0 mb)
Winds:variable direction winds at 3 MPH (3 knots; 1.5 m/s)
Visibility:6 or more sm (10+ km)
Ceiling:ceiling and visibility are OK
Clouds:unknown

TAF for:EGHH (Bournemouth Intl, --, UK) issued at 1359 UTC 21 May 2019
Text:TAF EGHH 211359Z 2115/2124 VRB04KT 9999 FEW045
Forecast period:1500 UTC 21 May 2019 to 0000 UTC 22 May 2019
Forecast type:FROM: standard forecast or significant change
Winds:variable direction winds at 5 MPH (4 knots; 2.1 m/s)
Visibility:6 or more sm (10+ km)
Ceiling:at least 12,000 feet AGL
Clouds: few clouds at 4500 feet AGL
Text:PROB30 2115/2118 20010KT
Forecast period:1500 to 1800 UTC 21 May 2019
Forecast type:PROBABLE: 30 percent likelihood of the following during this time
Winds:from the SSW (200 degrees) at 12 MPH (10 knots; 5.1 m/s)
Clouds:missing

METAR for:
Text:No data found

TAF for:
Text:No data found